sensor_id;sensor_type;location;lat;lon;timestamp;temperature;humidity
15705;DHT22;7952;48.396;12.806;2023-04-15T00:00:13;9.50;56.20
15705;DHT22;7952;48.396;12.806;2023-04-15T00:02:40;9.50;56.20
15705;DHT22;7952;48.396;12.806;2023-04-15T00:05:06;9.50;56.20
15705;DHT22;7952;48.396;12.806;2023-04-15T00:07:32;9.50;56.20
15705;DHT22;7952;48.396;12.806;2023-04-15T00:09:58;9.50;56.20
15705;DHT22;7952;48.396;12.806;2023-04-15T00:12:27;9.50;56.20
15705;DHT22;7952;48.396;12.806;2023-04-15T00:14:53;9.50;56.30
15705;DHT22;7952;48.396;12.806;2023-04-15T00:17:19;9.50;56.30
15705;DHT22;7952;48.396;12.806;2023-04-15T00:19:44;9.50;56.20
15705;DHT22;7952;48.396;12.806;2023-04-15T00:22:10;9.50;56.30
15705;DHT22;7952;48.396;12.806;2023-04-15T00:24:36;9.50;56.30
15705;DHT22;7952;48.396;12.806;2023-04-15T00:27:02;9.50;56.30
15705;DHT22;7952;48.396;12.806;2023-04-15T00:29:28;9.50;56.30
15705;DHT22;7952;48.396;12.806;2023-04-15T00:31:54;9.50;56.30
15705;DHT22;7952;48.396;12.806;2023-04-15T00:34:19;9.50;56.30
15705;DHT22;7952;48.396;12.806;2023-04-15T00:36:45;9.50;56.30
15705;DHT22;7952;48.396;12.806;2023-04-15T00:39:11;9.50;56.30
15705;DHT22;7952;48.396;12.806;2023-04-15T00:41:36;9.50;56.30
15705;DHT22;7952;48.396;12.806;2023-04-15T00:44:05;9.50;56.40
15705;DHT22;7952;48.396;12.806;2023-04-15T00:46:32;9.50;56.40
15705;DHT22;7952;48.396;12.806;2023-04-15T00:48:59;9.50;56.40
15705;DHT22;7952;48.396;12.806;2023-04-15T00:51:25;9.50;56.40
15705;DHT22;7952;48.396;12.806;2023-04-15T00:53:51;9.40;56.30
15705;DHT22;7952;48.396;12.806;2023-04-15T00:56:19;9.50;56.40
15705;DHT22;7952;48.396;12.806;2023-04-15T00:58:45;9.40;56.30
15705;DHT22;7952;48.396;12.806;2023-04-15T01:01:10;9.50;56.50
15705;DHT22;7952;48.396;12.806;2023-04-15T01:03:36;9.50;56.50
15705;DHT22;7952;48.396;12.806;2023-04-15T01:06:02;9.50;56.50
15705;DHT22;7952;48.396;12.806;2023-04-15T01:08:28;9.50;56.50
15705;DHT22;7952;48.396;12.806;2023-04-15T01:10:57;9.50;56.50
15705;DHT22;7952;48.396;12.806;2023-04-15T01:13:24;9.50;56.50
15705;DHT22;7952;48.396;12.806;2023-04-15T01:15:51;9.50;56.50
15705;DHT22;7952;48.396;12.806;2023-04-15T01:18:17;9.50;56.50
15705;DHT22;7952;48.396;12.806;2023-04-15T01:20:43;9.50;56.40
15705;DHT22;7952;48.396;12.806;2023-04-15T01:23:09;9.50;56.50
15705;DHT22;7952;48.396;12.806;2023-04-15T01:25:34;9.50;56.50
15705;DHT22;7952;48.396;12.806;2023-04-15T01:28:00;9.50;56.50
15705;DHT22;7952;48.396;12.806;2023-04-15T01:30:26;9.50;56.50
15705;DHT22;7952;48.396;12.806;2023-04-15T01:32:52;9.50;56.50
15705;DHT22;7952;48.396;12.806;2023-04-15T01:35:18;9.50;56.50
15705;DHT22;7952;48.396;12.806;2023-04-15T01:37:44;9.50;56.50
15705;DHT22;7952;48.396;12.806;2023-04-15T01:40:10;9.50;56.50
15705;DHT22;7952;48.396;12.806;2023-04-15T01:42:36;9.50;56.50
15705;DHT22;7952;48.396;12.806;2023-04-15T01:45:02;9.50;56.60
15705;DHT22;7952;48.396;12.806;2023-04-15T01:47:28;9.50;56.60
15705;DHT22;7952;48.396;12.806;2023-04-15T01:49:53;9.50;56.60
15705;DHT22;7952;48.396;12.806;2023-04-15T01:52:19;9.50;56.60
15705;DHT22;7952;48.396;12.806;2023-04-15T01:54:45;9.50;56.60
15705;DHT22;7952;48.396;12.806;2023-04-15T01:57:11;9.50;56.60
15705;DHT22;7952;48.396;12.806;2023-04-15T01:59:36;9.40;56.50
15705;DHT22;7952;48.396;12.806;2023-04-15T02:02:02;9.40;56.50
15705;DHT22;7952;48.396;12.806;2023-04-15T02:04:28;9.40;56.60
15705;DHT22;7952;48.396;12.806;2023-04-15T02:06:54;9.40;56.60
15705;DHT22;7952;48.396;12.806;2023-04-15T02:09:19;9.40;56.60
15705;DHT22;7952;48.396;12.806;2023-04-15T02:11:45;9.40;56.70
15705;DHT22;7952;48.396;12.806;2023-04-15T02:14:10;9.40;56.70
15705;DHT22;7952;48.396;12.806;2023-04-15T02:16:37;9.40;56.70
15705;DHT22;7952;48.396;12.806;2023-04-15T02:19:02;9.40;56.70
15705;DHT22;7952;48.396;12.806;2023-04-15T02:21:28;9.40;56.70
15705;DHT22;7952;48.396;12.806;2023-04-15T02:23:54;9.40;56.70
15705;DHT22;7952;48.396;12.806;2023-04-15T02:26:20;9.40;56.70
15705;DHT22;7952;48.396;12.806;2023-04-15T02:28:47;9.40;56.70
15705;DHT22;7952;48.396;12.806;2023-04-15T02:31:13;9.40;56.70
15705;DHT22;7952;48.396;12.806;2023-04-15T02:33:39;9.40;56.70
15705;DHT22;7952;48.396;12.806;2023-04-15T02:36:05;9.40;56.80
15705;DHT22;7952;48.396;12.806;2023-04-15T02:38:31;9.40;56.80
15705;DHT22;7952;48.396;12.806;2023-04-15T02:40:57;9.40;56.80
15705;DHT22;7952;48.396;12.806;2023-04-15T02:43:22;9.40;56.80
15705;DHT22;7952;48.396;12.806;2023-04-15T02:45:48;9.40;56.80
15705;DHT22;7952;48.396;12.806;2023-04-15T02:48:14;9.40;56.80
15705;DHT22;7952;48.396;12.806;2023-04-15T02:50:42;9.40;56.80
15705;DHT22;7952;48.396;12.806;2023-04-15T02:53:07;9.30;56.80
15705;DHT22;7952;48.396;12.806;2023-04-15T02:55:33;9.30;56.80
15705;DHT22;7952;48.396;12.806;2023-04-15T02:57:58;9.30;56.80
15705;DHT22;7952;48.396;12.806;2023-04-15T03:00:25;9.30;56.80
15705;DHT22;7952;48.396;12.806;2023-04-15T03:03:05;9.30;56.80
15705;DHT22;7952;48.396;12.806;2023-04-15T03:07:58;9.30;56.80
15705;DHT22;7952;48.396;12.806;2023-04-15T03:10:25;9.30;56.90
15705;DHT22;7952;48.396;12.806;2023-04-15T03:12:50;9.30;56.90
15705;DHT22;7952;48.396;12.806;2023-04-15T03:15:16;9.30;56.90
15705;DHT22;7952;48.396;12.806;2023-04-15T03:17:41;9.30;56.90
15705;DHT22;7952;48.396;12.806;2023-04-15T03:20:07;9.30;56.90
15705;DHT22;7952;48.396;12.806;2023-04-15T03:22:33;9.30;56.80
15705;DHT22;7952;48.396;12.806;2023-04-15T03:24:59;9.40;56.90
15705;DHT22;7952;48.396;12.806;2023-04-15T03:27:24;9.40;56.90
15705;DHT22;7952;48.396;12.806;2023-04-15T03:29:50;9.30;56.80
15705;DHT22;7952;48.396;12.806;2023-04-15T03:32:16;9.40;56.90
15705;DHT22;7952;48.396;12.806;2023-04-15T03:34:42;9.40;56.90
15705;DHT22;7952;48.396;12.806;2023-04-15T03:37:08;9.40;56.90
15705;DHT22;7952;48.396;12.806;2023-04-15T03:39:35;9.40;56.90
15705;DHT22;7952;48.396;12.806;2023-04-15T03:42:01;9.30;56.80
15705;DHT22;7952;48.396;12.806;2023-04-15T03:44:28;9.40;56.90
15705;DHT22;7952;48.396;12.806;2023-04-15T03:46:54;9.30;56.90
15705;DHT22;7952;48.396;12.806;2023-04-15T03:49:20;9.30;56.90
15705;DHT22;7952;48.396;12.806;2023-04-15T03:51:47;9.30;56.90
15705;DHT22;7952;48.396;12.806;2023-04-15T03:54:12;9.30;56.90
15705;DHT22;7952;48.396;12.806;2023-04-15T03:56:39;9.30;56.90
15705;DHT22;7952;48.396;12.806;2023-04-15T03:59:05;9.30;56.90
15705;DHT22;7952;48.396;12.806;2023-04-15T04:01:31;9.30;56.90
15705;DHT22;7952;48.396;12.806;2023-04-15T04:03:56;9.30;57.00
15705;DHT22;7952;48.396;12.806;2023-04-15T04:06:23;9.30;57.00
15705;DHT22;7952;48.396;12.806;2023-04-15T04:08:48;9.30;57.00
15705;DHT22;7952;48.396;12.806;2023-04-15T04:11:14;9.30;57.00
15705;DHT22;7952;48.396;12.806;2023-04-15T04:13:39;9.30;57.00
15705;DHT22;7952;48.396;12.806;2023-04-15T04:16:05;9.30;57.00
15705;DHT22;7952;48.396;12.806;2023-04-15T04:18:31;9.30;57.60
15705;DHT22;7952;48.396;12.806;2023-04-15T04:20:57;9.30;57.00
15705;DHT22;7952;48.396;12.806;2023-04-15T04:23:23;9.30;57.00
15705;DHT22;7952;48.396;12.806;2023-04-15T04:25:48;9.30;57.00
15705;DHT22;7952;48.396;12.806;2023-04-15T04:28:14;9.30;57.00
15705;DHT22;7952;48.396;12.806;2023-04-15T04:30:39;9.30;57.00
15705;DHT22;7952;48.396;12.806;2023-04-15T04:33:06;9.30;57.00
15705;DHT22;7952;48.396;12.806;2023-04-15T04:35:31;9.30;57.00
15705;DHT22;7952;48.396;12.806;2023-04-15T04:37:59;9.30;57.00
15705;DHT22;7952;48.396;12.806;2023-04-15T04:40:25;9.30;57.00
15705;DHT22;7952;48.396;12.806;2023-04-15T04:42:52;9.30;57.00
15705;DHT22;7952;48.396;12.806;2023-04-15T04:45:17;9.30;57.00
15705;DHT22;7952;48.396;12.806;2023-04-15T04:47:43;9.30;57.00
15705;DHT22;7952;48.396;12.806;2023-04-15T04:50:09;9.30;57.00
15705;DHT22;7952;48.396;12.806;2023-04-15T04:52:35;9.30;57.00
15705;DHT22;7952;48.396;12.806;2023-04-15T04:55:01;9.30;57.00
15705;DHT22;7952;48.396;12.806;2023-04-15T04:57:26;9.30;57.00
15705;DHT22;7952;48.396;12.806;2023-04-15T04:59:52;9.30;57.00
15705;DHT22;7952;48.396;12.806;2023-04-15T05:02:17;9.30;57.00
15705;DHT22;7952;48.396;12.806;2023-04-15T05:04:43;9.30;57.00
15705;DHT22;7952;48.396;12.806;2023-04-15T05:07:08;9.20;57.00
15705;DHT22;7952;48.396;12.806;2023-04-15T05:09:34;9.20;57.00
15705;DHT22;7952;48.396;12.806;2023-04-15T05:12:01;9.20;57.00
15705;DHT22;7952;48.396;12.806;2023-04-15T05:14:27;9.20;57.00
15705;DHT22;7952;48.396;12.806;2023-04-15T05:16:52;9.20;57.00
15705;DHT22;7952;48.396;12.806;2023-04-15T05:19:18;9.20;57.00
15705;DHT22;7952;48.396;12.806;2023-04-15T05:21:43;9.20;57.00
15705;DHT22;7952;48.396;12.806;2023-04-15T05:24:09;9.20;57.00
15705;DHT22;7952;48.396;12.806;2023-04-15T05:26:34;9.10;57.00
15705;DHT22;7952;48.396;12.806;2023-04-15T05:29:00;9.10;57.00
15705;DHT22;7952;48.396;12.806;2023-04-15T05:31:25;9.10;57.00
15705;DHT22;7952;48.396;12.806;2023-04-15T05:33:51;9.10;57.00
15705;DHT22;7952;48.396;12.806;2023-04-15T05:36:16;9.10;57.00
15705;DHT22;7952;48.396;12.806;2023-04-15T05:38:42;9.10;57.00
15705;DHT22;7952;48.396;12.806;2023-04-15T05:41:08;9.10;57.00
15705;DHT22;7952;48.396;12.806;2023-04-15T05:43:33;9.10;57.00
15705;DHT22;7952;48.396;12.806;2023-04-15T05:45:59;9.10;57.00
15705;DHT22;7952;48.396;12.806;2023-04-15T05:48:24;9.10;57.00
15705;DHT22;7952;48.396;12.806;2023-04-15T05:50:50;9.10;57.00
15705;DHT22;7952;48.396;12.806;2023-04-15T05:53:15;9.10;57.00
15705;DHT22;7952;48.396;12.806;2023-04-15T05:55:41;9.10;57.10
15705;DHT22;7952;48.396;12.806;2023-04-15T05:58:06;9.10;57.10
15705;DHT22;7952;48.396;12.806;2023-04-15T06:00:32;9.10;57.10
15705;DHT22;7952;48.396;12.806;2023-04-15T06:02:58;9.10;57.10
15705;DHT22;7952;48.396;12.806;2023-04-15T06:05:23;9.10;57.10
15705;DHT22;7952;48.396;12.806;2023-04-15T06:07:49;9.10;57.10
15705;DHT22;7952;48.396;12.806;2023-04-15T06:10:15;9.10;57.10
15705;DHT22;7952;48.396;12.806;2023-04-15T06:12:41;9.10;57.20
15705;DHT22;7952;48.396;12.806;2023-04-15T06:15:07;9.10;57.20
15705;DHT22;7952;48.396;12.806;2023-04-15T06:17:34;9.00;57.10
15705;DHT22;7952;48.396;12.806;2023-04-15T06:20:00;9.00;57.10
15705;DHT22;7952;48.396;12.806;2023-04-15T06:22:26;9.00;57.10
15705;DHT22;7952;48.396;12.806;2023-04-15T06:24:51;9.00;57.20
15705;DHT22;7952;48.396;12.806;2023-04-15T06:27:17;9.00;57.20
15705;DHT22;7952;48.396;12.806;2023-04-15T06:29:44;9.10;57.30
15705;DHT22;7952;48.396;12.806;2023-04-15T06:32:09;9.00;57.20
15705;DHT22;7952;48.396;12.806;2023-04-15T06:34:35;9.00;57.20
15705;DHT22;7952;48.396;12.806;2023-04-15T06:37:01;9.00;57.20
15705;DHT22;7952;48.396;12.806;2023-04-15T06:39:26;9.00;57.20
15705;DHT22;7952;48.396;12.806;2023-04-15T06:41:52;9.00;57.20
15705;DHT22;7952;48.396;12.806;2023-04-15T06:44:17;9.00;57.20
15705;DHT22;7952;48.396;12.806;2023-04-15T06:46:43;9.00;57.20
15705;DHT22;7952;48.396;12.806;2023-04-15T06:49:09;9.00;57.20
15705;DHT22;7952;48.396;12.806;2023-04-15T06:51:35;9.00;57.20
15705;DHT22;7952;48.396;12.806;2023-04-15T06:54:02;9.10;57.30
15705;DHT22;7952;48.396;12.806;2023-04-15T06:56:33;9.10;57.30
15705;DHT22;7952;48.396;12.806;2023-04-15T06:58:58;9.10;57.20
15705;DHT22;7952;48.396;12.806;2023-04-15T07:01:24;9.20;57.20
15705;DHT22;7952;48.396;12.806;2023-04-15T07:03:49;9.20;57.20
15705;DHT22;7952;48.396;12.806;2023-04-15T07:06:15;9.20;57.20
15705;DHT22;7952;48.396;12.806;2023-04-15T07:08:40;9.30;57.20
15705;DHT22;7952;48.396;12.806;2023-04-15T07:11:06;9.20;57.10
15705;DHT22;7952;48.396;12.806;2023-04-15T07:13:32;9.20;57.10
15705;DHT22;7952;48.396;12.806;2023-04-15T07:15:57;9.20;57.10
15705;DHT22;7952;48.396;12.806;2023-04-15T07:18:23;9.20;57.20
15705;DHT22;7952;48.396;12.806;2023-04-15T07:20:49;9.20;57.10
15705;DHT22;7952;48.396;12.806;2023-04-15T07:23:14;9.20;57.10
15705;DHT22;7952;48.396;12.806;2023-04-15T07:25:40;9.20;57.10
15705;DHT22;7952;48.396;12.806;2023-04-15T07:28:06;9.30;57.20
15705;DHT22;7952;48.396;12.806;2023-04-15T07:30:31;9.30;57.20
15705;DHT22;7952;48.396;12.806;2023-04-15T07:32:57;9.30;57.20
15705;DHT22;7952;48.396;12.806;2023-04-15T07:35:23;9.30;57.10
15705;DHT22;7952;48.396;12.806;2023-04-15T07:37:50;9.40;57.20
15705;DHT22;7952;48.396;12.806;2023-04-15T07:40:16;9.40;57.20
15705;DHT22;7952;48.396;12.806;2023-04-15T07:42:42;9.40;57.20
15705;DHT22;7952;48.396;12.806;2023-04-15T07:45:08;9.40;57.20
15705;DHT22;7952;48.396;12.806;2023-04-15T07:47:34;9.40;57.10
15705;DHT22;7952;48.396;12.806;2023-04-15T07:49:59;9.40;57.10
15705;DHT22;7952;48.396;12.806;2023-04-15T07:52:26;9.50;57.20
15705;DHT22;7952;48.396;12.806;2023-04-15T07:54:52;9.50;57.20
15705;DHT22;7952;48.396;12.806;2023-04-15T07:57:17;9.50;57.20
15705;DHT22;7952;48.396;12.806;2023-04-15T07:59:43;9.50;57.20
15705;DHT22;7952;48.396;12.806;2023-04-15T08:02:10;9.50;57.10
15705;DHT22;7952;48.396;12.806;2023-04-15T08:04:35;9.50;57.10
15705;DHT22;7952;48.396;12.806;2023-04-15T08:07:02;9.60;57.20
15705;DHT22;7952;48.396;12.806;2023-04-15T08:09:27;9.60;57.10
15705;DHT22;7952;48.396;12.806;2023-04-15T08:11:53;9.60;57.10
15705;DHT22;7952;48.396;12.806;2023-04-15T08:14:19;9.60;57.10
15705;DHT22;7952;48.396;12.806;2023-04-15T08:16:45;9.60;57.10
15705;DHT22;7952;48.396;12.806;2023-04-15T08:19:10;9.60;57.10
15705;DHT22;7952;48.396;12.806;2023-04-15T08:21:36;9.60;57.10
15705;DHT22;7952;48.396;12.806;2023-04-15T08:24:01;9.60;57.10
15705;DHT22;7952;48.396;12.806;2023-04-15T08:26:27;9.60;57.00
15705;DHT22;7952;48.396;12.806;2023-04-15T08:28:53;9.60;57.70
15705;DHT22;7952;48.396;12.806;2023-04-15T08:31:18;9.60;57.10
15705;DHT22;7952;48.396;12.806;2023-04-15T08:33:44;9.60;57.10
15705;DHT22;7952;48.396;12.806;2023-04-15T08:36:10;9.60;57.10
15705;DHT22;7952;48.396;12.806;2023-04-15T08:38:36;9.70;57.20
15705;DHT22;7952;48.396;12.806;2023-04-15T08:41:16;9.70;57.20
15705;DHT22;7952;48.396;12.806;2023-04-15T08:44:02;9.70;57.20
15705;DHT22;7952;48.396;12.806;2023-04-15T08:46:29;9.70;57.10
15705;DHT22;7952;48.396;12.806;2023-04-15T08:48:57;9.70;57.20
15705;DHT22;7952;48.396;12.806;2023-04-15T08:51:23;9.70;57.20
15705;DHT22;7952;48.396;12.806;2023-04-15T08:53:49;9.70;57.20
15705;DHT22;7952;48.396;12.806;2023-04-15T08:56:15;9.70;57.20
15705;DHT22;7952;48.396;12.806;2023-04-15T08:58:43;9.70;57.10
15705;DHT22;7952;48.396;12.806;2023-04-15T09:01:13;9.70;57.10
15705;DHT22;7952;48.396;12.806;2023-04-15T09:03:39;9.70;57.10
15705;DHT22;7952;48.396;12.806;2023-04-15T09:08:32;9.70;57.10
15705;DHT22;7952;48.396;12.806;2023-04-15T09:11:02;9.70;57.20
15705;DHT22;7952;48.396;12.806;2023-04-15T09:13:28;9.80;57.30
15705;DHT22;7952;48.396;12.806;2023-04-15T09:15:54;9.80;57.30
15705;DHT22;7952;48.396;12.806;2023-04-15T09:18:31;9.80;57.20
15705;DHT22;7952;48.396;12.806;2023-04-15T09:21:11;9.80;57.20
15705;DHT22;7952;48.396;12.806;2023-04-15T09:23:38;9.80;57.20
15705;DHT22;7952;48.396;12.806;2023-04-15T09:26:04;9.80;57.20
15705;DHT22;7952;48.396;12.806;2023-04-15T09:28:31;9.80;57.20
15705;DHT22;7952;48.396;12.806;2023-04-15T09:31:00;9.80;57.10
15705;DHT22;7952;48.396;12.806;2023-04-15T09:33:28;9.90;57.20
15705;DHT22;7952;48.396;12.806;2023-04-15T09:36:00;9.90;57.20
15705;DHT22;7952;48.396;12.806;2023-04-15T09:38:26;9.90;57.80
15705;DHT22;7952;48.396;12.806;2023-04-15T09:40:51;9.90;57.10
15705;DHT22;7952;48.396;12.806;2023-04-15T09:43:17;9.90;57.20
15705;DHT22;7952;48.396;12.806;2023-04-15T09:45:53;9.90;57.20
15705;DHT22;7952;48.396;12.806;2023-04-15T09:48:23;9.90;57.20
15705;DHT22;7952;48.396;12.806;2023-04-15T09:50:51;9.90;57.20
15705;DHT22;7952;48.396;12.806;2023-04-15T09:53:22;9.90;57.20
15705;DHT22;7952;48.396;12.806;2023-04-15T09:55:56;10.00;56.30
15705;DHT22;7952;48.396;12.806;2023-04-15T09:58:32;9.90;57.20
15705;DHT22;7952;48.396;12.806;2023-04-15T10:01:01;10.00;56.30
15705;DHT22;7952;48.396;12.806;2023-04-15T10:03:29;10.00;56.20
15705;DHT22;7952;48.396;12.806;2023-04-15T10:05:58;10.00;56.20
15705;DHT22;7952;48.396;12.806;2023-04-15T10:08:29;10.00;56.20
15705;DHT22;7952;48.396;12.806;2023-04-15T10:10:55;10.00;56.20
15705;DHT22;7952;48.396;12.806;2023-04-15T10:13:23;10.10;56.30
15705;DHT22;7952;48.396;12.806;2023-04-15T10:15:56;10.10;56.30
15705;DHT22;7952;48.396;12.806;2023-04-15T10:18:26;10.10;56.30
15705;DHT22;7952;48.396;12.806;2023-04-15T10:20:53;10.10;56.20
15705;DHT22;7952;48.396;12.806;2023-04-15T10:23:21;10.10;56.30
15705;DHT22;7952;48.396;12.806;2023-04-15T10:25:48;10.20;56.40
15705;DHT22;7952;48.396;12.806;2023-04-15T10:28:15;10.20;56.30
15705;DHT22;7952;48.396;12.806;2023-04-15T10:30:42;10.20;56.90
15705;DHT22;7952;48.396;12.806;2023-04-15T10:33:08;10.30;56.30
15705;DHT22;7952;48.396;12.806;2023-04-15T10:35:34;10.20;56.10
15705;DHT22;7952;48.396;12.806;2023-04-15T10:38:00;10.30;56.20
15705;DHT22;7952;48.396;12.806;2023-04-15T10:40:30;10.30;56.20
15705;DHT22;7952;48.396;12.806;2023-04-15T10:43:00;10.30;56.20
15705;DHT22;7952;48.396;12.806;2023-04-15T10:45:36;10.30;56.30
15705;DHT22;7952;48.396;12.806;2023-04-15T10:48:05;10.30;56.30
15705;DHT22;7952;48.396;12.806;2023-04-15T10:50:31;10.30;56.30
15705;DHT22;7952;48.396;12.806;2023-04-15T10:52:58;10.30;56.20
15705;DHT22;7952;48.396;12.806;2023-04-15T10:55:25;10.40;56.30
15705;DHT22;7952;48.396;12.806;2023-04-15T10:57:57;10.40;56.40
15705;DHT22;7952;48.396;12.806;2023-04-15T11:00:24;10.40;56.30
15705;DHT22;7952;48.396;12.806;2023-04-15T11:05:18;10.40;56.30
15705;DHT22;7952;48.396;12.806;2023-04-15T11:07:50;10.40;56.30
15705;DHT22;7952;48.396;12.806;2023-04-15T11:12:52;10.40;56.30
15705;DHT22;7952;48.396;12.806;2023-04-15T11:15:37;10.40;56.30
15705;DHT22;7952;48.396;12.806;2023-04-15T11:20:43;10.40;56.30
15705;DHT22;7952;48.396;12.806;2023-04-15T11:23:16;10.40;56.30
15705;DHT22;7952;48.396;12.806;2023-04-15T11:25:42;10.40;56.30
15705;DHT22;7952;48.396;12.806;2023-04-15T11:28:08;10.50;56.40
15705;DHT22;7952;48.396;12.806;2023-04-15T11:30:35;10.40;56.30
15705;DHT22;7952;48.396;12.806;2023-04-15T11:33:03;10.50;56.40
15705;DHT22;7952;48.396;12.806;2023-04-15T11:35:29;10.50;56.40
15705;DHT22;7952;48.396;12.806;2023-04-15T11:37:55;10.50;56.40
15705;DHT22;7952;48.396;12.806;2023-04-15T11:40:25;10.50;56.40
15705;DHT22;7952;48.396;12.806;2023-04-15T11:43:16;10.50;56.40
15705;DHT22;7952;48.396;12.806;2023-04-15T11:45:56;10.60;56.40
15705;DHT22;7952;48.396;12.806;2023-04-15T11:48:27;10.70;56.60
15705;DHT22;7952;48.396;12.806;2023-04-15T11:51:06;10.70;56.50
15705;DHT22;7952;48.396;12.806;2023-04-15T11:53:46;10.80;56.50
15705;DHT22;7952;48.396;12.806;2023-04-15T11:56:23;10.90;56.50
15705;DHT22;7952;48.396;12.806;2023-04-15T11:58:53;11.00;56.50
15705;DHT22;7952;48.396;12.806;2023-04-15T12:01:38;11.00;56.40
15705;DHT22;7952;48.396;12.806;2023-04-15T12:04:13;11.00;56.30
15705;DHT22;7952;48.396;12.806;2023-04-15T12:06:48;11.00;56.30
15705;DHT22;7952;48.396;12.806;2023-04-15T12:09:15;11.00;56.30
15705;DHT22;7952;48.396;12.806;2023-04-15T12:11:44;11.00;56.30
15705;DHT22;7952;48.396;12.806;2023-04-15T12:16:49;11.00;56.30
15705;DHT22;7952;48.396;12.806;2023-04-15T12:19:17;10.90;56.30
15705;DHT22;7952;48.396;12.806;2023-04-15T12:21:45;10.80;56.20
15705;DHT22;7952;48.396;12.806;2023-04-15T12:24:12;10.80;56.80
15705;DHT22;7952;48.396;12.806;2023-04-15T12:26:49;10.80;56.20
15705;DHT22;7952;48.396;12.806;2023-04-15T12:29:15;10.80;56.30
15705;DHT22;7952;48.396;12.806;2023-04-15T12:34:26;10.70;56.30
15705;DHT22;7952;48.396;12.806;2023-04-15T12:36:53;10.70;56.40
15705;DHT22;7952;48.396;12.806;2023-04-15T12:39:23;10.70;56.40
15705;DHT22;7952;48.396;12.806;2023-04-15T12:41:49;10.70;56.40
15705;DHT22;7952;48.396;12.806;2023-04-15T12:44:15;10.70;56.40
15705;DHT22;7952;48.396;12.806;2023-04-15T12:46:41;10.80;56.50
15705;DHT22;7952;48.396;12.806;2023-04-15T12:49:07;10.80;56.40
15705;DHT22;7952;48.396;12.806;2023-04-15T12:51:33;10.80;56.40
15705;DHT22;7952;48.396;12.806;2023-04-15T12:54:09;10.80;56.40
15705;DHT22;7952;48.396;12.806;2023-04-15T12:56:35;10.80;56.40
15705;DHT22;7952;48.396;12.806;2023-04-15T12:59:01;10.90;56.50
15705;DHT22;7952;48.396;12.806;2023-04-15T13:01:27;10.90;56.50
15705;DHT22;7952;48.396;12.806;2023-04-15T13:07:07;11.00;56.50
15705;DHT22;7952;48.396;12.806;2023-04-15T13:09:34;11.00;56.50
15705;DHT22;7952;48.396;12.806;2023-04-15T13:12:00;11.00;56.40
15705;DHT22;7952;48.396;12.806;2023-04-15T13:15:01;11.10;56.50
15705;DHT22;7952;48.396;12.806;2023-04-15T13:17:50;11.10;56.50
15705;DHT22;7952;48.396;12.806;2023-04-15T13:20:22;11.20;56.60
15705;DHT22;7952;48.396;12.806;2023-04-15T13:23:07;11.20;56.50
15705;DHT22;7952;48.396;12.806;2023-04-15T13:25:42;11.30;56.40
15705;DHT22;7952;48.396;12.806;2023-04-15T13:44:50;11.60;56.70
15705;DHT22;7952;48.396;12.806;2023-04-15T13:47:23;11.70;56.70
15705;DHT22;7952;48.396;12.806;2023-04-15T13:49:55;11.70;56.70
15705;DHT22;7952;48.396;12.806;2023-04-15T13:52:22;11.80;56.70
15705;DHT22;7952;48.396;12.806;2023-04-15T13:54:48;11.90;56.70
15705;DHT22;7952;48.396;12.806;2023-04-15T13:57:17;12.00;56.70
15705;DHT22;7952;48.396;12.806;2023-04-15T13:59:43;12.10;56.90
15705;DHT22;7952;48.396;12.806;2023-04-15T14:02:09;12.10;56.70
15705;DHT22;7952;48.396;12.806;2023-04-15T14:04:35;12.20;56.80
15705;DHT22;7952;48.396;12.806;2023-04-15T14:07:00;12.30;56.80
15705;DHT22;7952;48.396;12.806;2023-04-15T14:09:26;12.40;56.70
15705;DHT22;7952;48.396;12.806;2023-04-15T14:11:52;12.50;56.70
15705;DHT22;7952;48.396;12.806;2023-04-15T14:14:18;12.50;56.50
15705;DHT22;7952;48.396;12.806;2023-04-15T14:16:43;12.60;56.50
15705;DHT22;7952;48.396;12.806;2023-04-15T14:19:13;12.70;56.40
15705;DHT22;7952;48.396;12.806;2023-04-15T14:21:38;12.70;56.30
15705;DHT22;7952;48.396;12.806;2023-04-15T14:24:04;12.70;56.20
15705;DHT22;7952;48.396;12.806;2023-04-15T14:26:30;12.70;56.10
15705;DHT22;7952;48.396;12.806;2023-04-15T14:29:41;12.60;56.00
15705;DHT22;7952;48.396;12.806;2023-04-15T14:31:54;12.60;56.10
15705;DHT22;7952;48.396;12.806;2023-04-15T14:34:22;12.50;56.00
15705;DHT22;7952;48.396;12.806;2023-04-15T14:36:50;12.40;56.00
15705;DHT22;7952;48.396;12.806;2023-04-15T14:39:16;12.40;56.00
15705;DHT22;7952;48.396;12.806;2023-04-15T14:41:42;12.40;56.10
15705;DHT22;7952;48.396;12.806;2023-04-15T14:44:07;12.30;56.00
15705;DHT22;7952;48.396;12.806;2023-04-15T14:46:34;12.20;56.10
15705;DHT22;7952;48.396;12.806;2023-04-15T14:48:59;12.20;56.10
15705;DHT22;7952;48.396;12.806;2023-04-15T14:51:25;12.10;56.10
15705;DHT22;7952;48.396;12.806;2023-04-15T14:53:51;12.10;56.20
15705;DHT22;7952;48.396;12.806;2023-04-15T14:56:16;12.00;56.20
15705;DHT22;7952;48.396;12.806;2023-04-15T14:58:42;12.00;56.30
15705;DHT22;7952;48.396;12.806;2023-04-15T15:01:08;12.00;56.30
15705;DHT22;7952;48.396;12.806;2023-04-15T15:03:34;11.90;56.20
15705;DHT22;7952;48.396;12.806;2023-04-15T15:06:00;11.80;56.80
15705;DHT22;7952;48.396;12.806;2023-04-15T15:08:28;11.80;56.30
15705;DHT22;7952;48.396;12.806;2023-04-15T15:11:04;11.70;56.30
15705;DHT22;7952;48.396;12.806;2023-04-15T15:13:36;11.70;56.30
15705;DHT22;7952;48.396;12.806;2023-04-15T15:16:02;11.60;56.30
15705;DHT22;7952;48.396;12.806;2023-04-15T15:18:28;11.50;56.30
15705;DHT22;7952;48.396;12.806;2023-04-15T15:21:13;11.50;56.30
15705;DHT22;7952;48.396;12.806;2023-04-15T15:27:01;11.40;56.40
15705;DHT22;7952;48.396;12.806;2023-04-15T15:29:27;11.40;56.50
15705;DHT22;7952;48.396;12.806;2023-04-15T15:35:40;11.30;56.50
15705;DHT22;7952;48.396;12.806;2023-04-15T15:41:24;11.20;56.50
15705;DHT22;7952;48.396;12.806;2023-04-15T15:44:25;11.20;56.60
15705;DHT22;7952;48.396;12.806;2023-04-15T15:46:51;11.20;56.60
15705;DHT22;7952;48.396;12.806;2023-04-15T15:49:23;11.20;56.60
15705;DHT22;7952;48.396;12.806;2023-04-15T15:51:50;11.20;56.60
15705;DHT22;7952;48.396;12.806;2023-04-15T15:54:36;11.10;56.50
15705;DHT22;7952;48.396;12.806;2023-04-15T15:57:02;11.10;56.50
15705;DHT22;7952;48.396;12.806;2023-04-15T15:59:28;11.10;56.50
15705;DHT22;7952;48.396;12.806;2023-04-15T16:02:09;11.10;56.60
15705;DHT22;7952;48.396;12.806;2023-04-15T16:04:38;11.00;56.50
15705;DHT22;7952;48.396;12.806;2023-04-15T16:07:04;11.00;56.50
15705;DHT22;7952;48.396;12.806;2023-04-15T16:09:33;11.00;56.50
15705;DHT22;7952;48.396;12.806;2023-04-15T16:11:59;11.00;56.50
15705;DHT22;7952;48.396;12.806;2023-04-15T16:14:25;11.00;56.50
15705;DHT22;7952;48.396;12.806;2023-04-15T16:17:23;11.00;56.50
15705;DHT22;7952;48.396;12.806;2023-04-15T16:19:49;11.00;56.50
15705;DHT22;7952;48.396;12.806;2023-04-15T16:22:15;11.00;56.50
15705;DHT22;7952;48.396;12.806;2023-04-15T16:24:41;11.00;56.60
15705;DHT22;7952;48.396;12.806;2023-04-15T16:27:07;11.00;56.60
15705;DHT22;7952;48.396;12.806;2023-04-15T16:29:35;11.00;56.60